sensor_id;sensor_type;location;lat;lon;timestamp;P1;durP1;ratioP1;P2;durP2;ratioP2
57778;SDS011;43608;49.486;9.640;2023-09-30T00:00:23;2.70;;;1.80;;
57778;SDS011;43608;49.486;9.640;2023-09-30T00:00:53;1.70;;;1.60;;
57778;SDS011;43608;49.486;9.640;2023-09-30T00:01:24;2.58;;;1.83;;
57778;SDS011;43608;49.486;9.640;2023-09-30T00:01:54;1.83;;;1.65;;
57778;SDS011;43608;49.486;9.640;2023-09-30T00:02:25;2.55;;;1.60;;
57778;SDS011;43608;49.486;9.640;2023-09-30T00:02:55;2.65;;;1.90;;
57778;SDS011;43608;49.486;9.640;2023-09-30T00:03:26;2.45;;;1.88;;
57778;SDS011;43608;49.486;9.640;2023-09-30T00:03:56;2.00;;;1.70;;
57778;SDS011;43608;49.486;9.640;2023-09-30T00:04:26;2.83;;;2.10;;
57778;SDS011;43608;49.486;9.640;2023-09-30T00:04:58;2.75;;;1.75;;
57778;SDS011;43608;49.486;9.640;2023-09-30T00:05:28;2.75;;;1.90;;
57778;SDS011;43608;49.486;9.640;2023-09-30T00:05:58;2.67;;;1.80;;
57778;SDS011;43608;49.486;9.640;2023-09-30T00:06:29;1.95;;;1.75;;
57778;SDS011;43608;49.486;9.640;2023-09-30T00:06:59;2.28;;;1.73;;
57778;SDS011;43608;49.486;9.640;2023-09-30T00:07:30;2.13;;;1.75;;
57778;SDS011;43608;49.486;9.640;2023-09-30T00:08:00;2.28;;;1.80;;
57778;SDS011;43608;49.486;9.640;2023-09-30T00:08:30;2.38;;;1.90;;
57778;SDS011;43608;49.486;9.640;2023-09-30T00:09:01;1.88;;;1.67;;
57778;SDS011;43608;49.486;9.640;2023-09-30T00:09:32;1.80;;;1.70;;
57778;SDS011;43608;49.486;9.640;2023-09-30T00:10:02;1.90;;;1.73;;
57778;SDS011;43608;49.486;9.640;2023-09-30T00:10:33;2.35;;;1.80;;
57778;SDS011;43608;49.486;9.640;2023-09-30T00:11:04;1.88;;;1.75;;
57778;SDS011;43608;49.486;9.640;2023-09-30T00:11:35;1.75;;;1.65;;
57778;SDS011;43608;49.486;9.640;2023-09-30T00:12:06;1.90;;;1.73;;
57778;SDS011;43608;49.486;9.640;2023-09-30T00:12:36;1.77;;;1.67;;
57778;SDS011;43608;49.486;9.640;2023-09-30T00:13:07;1.92;;;1.60;;
57778;SDS011;43608;49.486;9.640;2023-09-30T00:13:38;1.83;;;1.70;;
57778;SDS011;43608;49.486;9.640;2023-09-30T00:14:08;1.60;;;1.50;;
57778;SDS011;43608;49.486;9.640;2023-09-30T00:14:38;1.70;;;1.60;;
57778;SDS011;43608;49.486;9.640;2023-09-30T00:15:09;1.95;;;1.77;;
57778;SDS011;43608;49.486;9.640;2023-09-30T00:15:39;2.35;;;1.80;;
57778;SDS011;43608;49.486;9.640;2023-09-30T00:16:11;2.10;;;1.80;;
57778;SDS011;43608;49.486;9.640;2023-09-30T00:16:41;1.60;;;1.50;;
57778;SDS011;43608;49.486;9.640;2023-09-30T00:17:11;1.92;;;1.73;;
57778;SDS011;43608;49.486;9.640;2023-09-30T00:17:42;1.80;;;1.65;;
57778;SDS011;43608;49.486;9.640;2023-09-30T00:18:12;1.92;;;1.70;;
57778;SDS011;43608;49.486;9.640;2023-09-30T00:18:43;1.60;;;1.50;;
57778;SDS011;43608;49.486;9.640;2023-09-30T00:19:14;1.80;;;1.70;;
57778;SDS011;43608;49.486;9.640;2023-09-30T00:19:45;1.58;;;1.48;;
57778;SDS011;43608;49.486;9.640;2023-09-30T00:20:15;1.52;;;1.42;;
57778;SDS011;43608;49.486;9.640;2023-09-30T00:20:45;1.60;;;1.50;;
57778;SDS011;43608;49.486;9.640;2023-09-30T00:21:16;1.67;;;1.58;;
57778;SDS011;43608;49.486;9.640;2023-09-30T00:21:46;2.00;;;1.60;;
57778;SDS011;43608;49.486;9.640;2023-09-30T00:22:17;1.73;;;1.63;;
57778;SDS011;43608;49.486;9.640;2023-09-30T00:22:47;1.70;;;1.60;;
57778;SDS011;43608;49.486;9.640;2023-09-30T00:23:18;1.60;;;1.50;;
57778;SDS011;43608;49.486;9.640;2023-09-30T00:23:51;2.65;;;1.70;;
57778;SDS011;43608;49.486;9.640;2023-09-30T00:24:21;1.60;;;1.50;;
57778;SDS011;43608;49.486;9.640;2023-09-30T00:24:51;2.00;;;1.60;;
57778;SDS011;43608;49.486;9.640;2023-09-30T00:25:22;1.60;;;1.50;;
57778;SDS011;43608;49.486;9.640;2023-09-30T00:25:52;1.73;;;1.63;;
57778;SDS011;43608;49.486;9.640;2023-09-30T00:26:22;1.50;;;1.40;;
57778;SDS011;43608;49.486;9.640;2023-09-30T00:26:53;2.00;;;1.50;;
57778;SDS011;43608;49.486;9.640;2023-09-30T00:27:24;1.60;;;1.50;;
57778;SDS011;43608;49.486;9.640;2023-09-30T00:27:54;1.70;;;1.60;;
57778;SDS011;43608;49.486;9.640;2023-09-30T00:28:24;2.83;;;1.90;;
57778;SDS011;43608;49.486;9.640;2023-09-30T00:28:55;2.03;;;1.80;;
57778;SDS011;43608;49.486;9.640;2023-09-30T00:29:25;2.75;;;1.85;;
57778;SDS011;43608;49.486;9.640;2023-09-30T00:29:56;1.85;;;1.70;;
57778;SDS011;43608;49.486;9.640;2023-09-30T00:30:27;2.15;;;1.70;;
57778;SDS011;43608;49.486;9.640;2023-09-30T00:30:57;2.00;;;1.80;;
57778;SDS011;43608;49.486;9.640;2023-09-30T00:31:28;2.00;;;1.70;;
57778;SDS011;43608;49.486;9.640;2023-09-30T00:31:58;2.35;;;1.88;;
57778;SDS011;43608;49.486;9.640;2023-09-30T00:32:28;1.83;;;1.65;;
57778;SDS011;43608;49.486;9.640;2023-09-30T00:32:59;2.05;;;1.75;;
57778;SDS011;43608;49.486;9.640;2023-09-30T00:33:30;1.88;;;1.70;;
57778;SDS011;43608;49.486;9.640;2023-09-30T00:34:00;1.75;;;1.42;;
57778;SDS011;43608;49.486;9.640;2023-09-30T00:34:34;1.90;;;1.67;;
57778;SDS011;43608;49.486;9.640;2023-09-30T00:35:05;1.70;;;1.60;;
57778;SDS011;43608;49.486;9.640;2023-09-30T00:35:41;1.60;;;1.50;;
57778;SDS011;43608;49.486;9.640;2023-09-30T00:36:11;2.08;;;1.83;;
57778;SDS011;43608;49.486;9.640;2023-09-30T00:36:42;1.98;;;1.60;;
57778;SDS011;43608;49.486;9.640;2023-09-30T00:37:12;2.03;;;1.83;;
57778;SDS011;43608;49.486;9.640;2023-09-30T00:37:43;1.73;;;1.63;;
57778;SDS011;43608;49.486;9.640;2023-09-30T00:38:14;1.70;;;1.60;;
57778;SDS011;43608;49.486;9.640;2023-09-30T00:38:44;2.03;;;1.70;;
57778;SDS011;43608;49.486;9.640;2023-09-30T00:39:15;1.70;;;1.60;;
57778;SDS011;43608;49.486;9.640;2023-09-30T00:39:45;1.80;;;1.55;;
57778;SDS011;43608;49.486;9.640;2023-09-30T00:40:16;1.92;;;1.70;;
57778;SDS011;43608;49.486;9.640;2023-09-30T00:40:47;1.80;;;1.60;;
57778;SDS011;43608;49.486;9.640;2023-09-30T00:41:20;2.58;;;1.80;;
57778;SDS011;43608;49.486;9.640;2023-09-30T00:41:51;1.75;;;1.60;;
57778;SDS011;43608;49.486;9.640;2023-09-30T00:42:21;1.95;;;1.58;;
57778;SDS011;43608;49.486;9.640;2023-09-30T00:42:52;1.90;;;1.70;;
57778;SDS011;43608;49.486;9.640;2023-09-30T00:43:22;2.20;;;1.70;;
57778;SDS011;43608;49.486;9.640;2023-09-30T00:43:52;2.33;;;1.75;;
57778;SDS011;43608;49.486;9.640;2023-09-30T00:44:23;1.98;;;1.73;;
57778;SDS011;43608;49.486;9.640;2023-09-30T00:44:53;2.00;;;1.80;;
57778;SDS011;43608;49.486;9.640;2023-09-30T00:45:23;2.47;;;1.67;;
57778;SDS011;43608;49.486;9.640;2023-09-30T00:46:39;1.75;;;1.60;;
57778;SDS011;43608;49.486;9.640;2023-09-30T00:46:59;1.80;;;1.70;;
57778;SDS011;43608;49.486;9.640;2023-09-30T00:47:30;1.75;;;1.63;;
57778;SDS011;43608;49.486;9.640;2023-09-30T00:48:01;1.88;;;1.63;;
57778;SDS011;43608;49.486;9.640;2023-09-30T00:48:34;1.73;;;1.63;;
57778;SDS011;43608;49.486;9.640;2023-09-30T00:49:05;2.78;;;1.90;;
57778;SDS011;43608;49.486;9.640;2023-09-30T00:49:35;1.88;;;1.67;;
57778;SDS011;43608;49.486;9.640;2023-09-30T00:50:06;1.90;;;1.70;;
57778;SDS011;43608;49.486;9.640;2023-09-30T00:50:38;1.70;;;1.60;;
57778;SDS011;43608;49.486;9.640;2023-09-30T00:51:10;2.00;;;1.80;;
57778;SDS011;43608;49.486;9.640;2023-09-30T00:51:41;1.80;;;1.70;;
57778;SDS011;43608;49.486;9.640;2023-09-30T00:52:11;2.38;;;2.00;;
57778;SDS011;43608;49.486;9.640;2023-09-30T00:52:42;2.42;;;1.80;;
57778;SDS011;43608;49.486;9.640;2023-09-30T00:53:14;2.03;;;1.80;;
57778;SDS011;43608;49.486;9.640;2023-09-30T00:53:44;2.38;;;1.92;;
57778;SDS011;43608;49.486;9.640;2023-09-30T00:54:15;2.03;;;1.83;;
57778;SDS011;43608;49.486;9.640;2023-09-30T00:54:47;3.08;;;1.92;;
57778;SDS011;43608;49.486;9.640;2023-09-30T00:55:18;2.00;;;1.80;;
57778;SDS011;43608;49.486;9.640;2023-09-30T00:55:49;1.77;;;1.63;;
57778;SDS011;43608;49.486;9.640;2023-09-30T00:56:21;2.30;;;1.80;;
57778;SDS011;43608;49.486;9.640;2023-09-30T00:56:55;1.92;;;1.73;;
57778;SDS011;43608;49.486;9.640;2023-09-30T00:57:27;2.25;;;1.83;;
57778;SDS011;43608;49.486;9.640;2023-09-30T00:57:58;2.25;;;1.70;;
57778;SDS011;43608;49.486;9.640;2023-09-30T00:58:28;2.35;;;1.95;;
57778;SDS011;43608;49.486;9.640;2023-09-30T00:59:00;2.08;;;1.88;;
57778;SDS011;43608;49.486;9.640;2023-09-30T00:59:31;2.03;;;1.60;;
57778;SDS011;43608;49.486;9.640;2023-09-30T01:00:02;2.20;;;1.95;;
57778;SDS011;43608;49.486;9.640;2023-09-30T01:00:33;1.80;;;1.70;;
57778;SDS011;43608;49.486;9.640;2023-09-30T01:01:04;2.75;;;1.90;;
57778;SDS011;43608;49.486;9.640;2023-09-30T01:01:35;2.08;;;1.80;;
57778;SDS011;43608;49.486;9.640;2023-09-30T01:02:06;2.47;;;1.90;;
57778;SDS011;43608;49.486;9.640;2023-09-30T01:02:40;2.20;;;1.77;;
57778;SDS011;43608;49.486;9.640;2023-09-30T01:03:11;3.35;;;2.00;;
57778;SDS011;43608;49.486;9.640;2023-09-30T01:03:42;2.65;;;1.90;;
57778;SDS011;43608;49.486;9.640;2023-09-30T01:04:13;1.88;;;1.67;;
57778;SDS011;43608;49.486;9.640;2023-09-30T01:04:45;1.90;;;1.73;;
57778;SDS011;43608;49.486;9.640;2023-09-30T01:05:15;2.35;;;1.75;;
57778;SDS011;43608;49.486;9.640;2023-09-30T01:05:45;2.70;;;1.90;;
57778;SDS011;43608;49.486;9.640;2023-09-30T01:06:16;2.35;;;1.90;;
57778;SDS011;43608;49.486;9.640;2023-09-30T01:06:47;3.03;;;2.10;;
57778;SDS011;43608;49.486;9.640;2023-09-30T01:07:17;2.00;;;1.85;;
57778;SDS011;43608;49.486;9.640;2023-09-30T01:07:48;2.83;;;1.92;;
57778;SDS011;43608;49.486;9.640;2023-09-30T01:08:18;2.05;;;1.85;;
57778;SDS011;43608;49.486;9.640;2023-09-30T01:08:50;2.42;;;2.00;;
57778;SDS011;43608;49.486;9.640;2023-09-30T01:09:20;2.97;;;2.10;;
57778;SDS011;43608;49.486;9.640;2023-09-30T01:09:50;3.33;;;2.13;;
57778;SDS011;43608;49.486;9.640;2023-09-30T01:10:21;1.90;;;1.80;;
57778;SDS011;43608;49.486;9.640;2023-09-30T01:10:51;2.35;;;1.95;;
57778;SDS011;43608;49.486;9.640;2023-09-30T01:11:22;2.78;;;2.08;;
57778;SDS011;43608;49.486;9.640;2023-09-30T01:11:53;2.17;;;1.98;;
57778;SDS011;43608;49.486;9.640;2023-09-30T01:12:23;2.53;;;2.00;;
57778;SDS011;43608;49.486;9.640;2023-09-30T01:12:53;3.25;;;2.17;;
57778;SDS011;43608;49.486;9.640;2023-09-30T01:13:31;2.85;;;2.20;;
57778;SDS011;43608;49.486;9.640;2023-09-30T01:14:03;2.60;;;2.00;;
57778;SDS011;43608;49.486;9.640;2023-09-30T01:14:34;2.42;;;2.03;;
57778;SDS011;43608;49.486;9.640;2023-09-30T01:15:08;2.70;;;2.10;;
57778;SDS011;43608;49.486;9.640;2023-09-30T01:15:39;2.13;;;1.90;;
57778;SDS011;43608;49.486;9.640;2023-09-30T01:16:10;2.15;;;1.80;;
57778;SDS011;43608;49.486;9.640;2023-09-30T01:16:41;3.15;;;2.10;;
57778;SDS011;43608;49.486;9.640;2023-09-30T01:17:11;2.65;;;2.08;;
57778;SDS011;43608;49.486;9.640;2023-09-30T01:17:43;3.13;;;1.92;;
57778;SDS011;43608;49.486;9.640;2023-09-30T01:18:14;2.35;;;1.90;;
57778;SDS011;43608;49.486;9.640;2023-09-30T01:18:44;3.03;;;2.00;;
57778;SDS011;43608;49.486;9.640;2023-09-30T01:19:14;2.72;;;1.90;;
57778;SDS011;43608;49.486;9.640;2023-09-30T01:19:45;2.20;;;2.00;;
57778;SDS011;43608;49.486;9.640;2023-09-30T01:20:15;2.05;;;1.85;;
57778;SDS011;43608;49.486;9.640;2023-09-30T01:20:49;2.67;;;2.00;;
57778;SDS011;43608;49.486;9.640;2023-09-30T01:21:22;2.40;;;2.10;;
57778;SDS011;43608;49.486;9.640;2023-09-30T01:21:54;3.30;;;2.22;;
57778;SDS011;43608;49.486;9.640;2023-09-30T01:22:28;2.22;;;2.00;;
57778;SDS011;43608;49.486;9.640;2023-09-30T01:23:00;2.40;;;2.08;;
57778;SDS011;43608;49.486;9.640;2023-09-30T01:23:32;2.10;;;1.90;;
57778;SDS011;43608;49.486;9.640;2023-09-30T01:24:04;2.17;;;1.95;;
57778;SDS011;43608;49.486;9.640;2023-09-30T01:24:41;2.80;;;2.08;;
57778;SDS011;43608;49.486;9.640;2023-09-30T01:25:12;2.08;;;1.88;;
57778;SDS011;43608;49.486;9.640;2023-09-30T01:25:42;2.35;;;1.90;;
57778;SDS011;43608;49.486;9.640;2023-09-30T01:26:14;2.00;;;1.80;;
57778;SDS011;43608;49.486;9.640;2023-09-30T01:26:44;2.35;;;2.00;;
57778;SDS011;43608;49.486;9.640;2023-09-30T01:27:14;2.42;;;1.95;;
57778;SDS011;43608;49.486;9.640;2023-09-30T01:27:48;2.30;;;2.00;;
57778;SDS011;43608;49.486;9.640;2023-09-30T01:28:18;2.38;;;2.08;;
57778;SDS011;43608;49.486;9.640;2023-09-30T01:28:49;2.15;;;1.90;;
57778;SDS011;43608;49.486;9.640;2023-09-30T01:29:19;2.25;;;2.00;;
57778;SDS011;43608;49.486;9.640;2023-09-30T01:29:50;2.10;;;1.90;;
57778;SDS011;43608;49.486;9.640;2023-09-30T01:30:21;2.47;;;2.00;;
57778;SDS011;43608;49.486;9.640;2023-09-30T01:30:53;2.17;;;1.95;;
57778;SDS011;43608;49.486;9.640;2023-09-30T01:31:23;2.20;;;2.00;;
57778;SDS011;43608;49.486;9.640;2023-09-30T01:31:54;2.05;;;1.85;;
57778;SDS011;43608;49.486;9.640;2023-09-30T01:32:24;1.95;;;1.75;;
57778;SDS011;43608;49.486;9.640;2023-09-30T01:32:54;2.17;;;1.90;;
57778;SDS011;43608;49.486;9.640;2023-09-30T01:33:25;1.75;;;1.65;;
57778;SDS011;43608;49.486;9.640;2023-09-30T01:33:55;2.03;;;1.83;;
57778;SDS011;43608;49.486;9.640;2023-09-30T01:34:26;1.80;;;1.70;;
57778;SDS011;43608;49.486;9.640;2023-09-30T01:34:56;2.25;;;2.05;;
57778;SDS011;43608;49.486;9.640;2023-09-30T01:35:26;2.10;;;1.90;;
57778;SDS011;43608;49.486;9.640;2023-09-30T01:35:57;2.00;;;1.80;;
57778;SDS011;43608;49.486;9.640;2023-09-30T01:36:29;2.10;;;1.90;;
57778;SDS011;43608;49.486;9.640;2023-09-30T01:36:59;2.00;;;1.80;;
57778;SDS011;43608;49.486;9.640;2023-09-30T01:37:30;2.08;;;1.85;;
57778;SDS011;43608;49.486;9.640;2023-09-30T01:38:00;1.88;;;1.77;;
57778;SDS011;43608;49.486;9.640;2023-09-30T01:38:31;2.03;;;1.75;;
57778;SDS011;43608;49.486;9.640;2023-09-30T01:39:01;2.25;;;1.80;;
57778;SDS011;43608;49.486;9.640;2023-09-30T01:39:32;2.00;;;1.85;;
57778;SDS011;43608;49.486;9.640;2023-09-30T01:40:03;3.25;;;2.00;;
57778;SDS011;43608;49.486;9.640;2023-09-30T01:40:37;1.98;;;1.80;;
57778;SDS011;43608;49.486;9.640;2023-09-30T01:41:08;1.80;;;1.70;;
57778;SDS011;43608;49.486;9.640;2023-09-30T01:41:39;2.10;;;1.90;;
57778;SDS011;43608;49.486;9.640;2023-09-30T01:42:09;2.08;;;1.90;;
57778;SDS011;43608;49.486;9.640;2023-09-30T01:42:40;1.80;;;1.70;;
57778;SDS011;43608;49.486;9.640;2023-09-30T01:43:11;2.22;;;1.98;;
57778;SDS011;43608;49.486;9.640;2023-09-30T01:43:43;2.00;;;1.80;;
57778;SDS011;43608;49.486;9.640;2023-09-30T01:44:13;1.95;;;1.77;;
57778;SDS011;43608;49.486;9.640;2023-09-30T01:44:44;2.45;;;1.90;;
57778;SDS011;43608;49.486;9.640;2023-09-30T01:45:14;2.03;;;1.75;;
57778;SDS011;43608;49.486;9.640;2023-09-30T01:45:44;2.35;;;2.00;;
57778;SDS011;43608;49.486;9.640;2023-09-30T01:46:15;2.20;;;2.00;;
57778;SDS011;43608;49.486;9.640;2023-09-30T01:46:45;2.05;;;1.85;;
57778;SDS011;43608;49.486;9.640;2023-09-30T01:47:16;2.55;;;1.90;;
57778;SDS011;43608;49.486;9.640;2023-09-30T01:47:46;2.15;;;1.95;;
57778;SDS011;43608;49.486;9.640;2023-09-30T01:48:17;2.60;;;2.20;;
57778;SDS011;43608;49.486;9.640;2023-09-30T01:48:47;2.20;;;2.00;;
57778;SDS011;43608;49.486;9.640;2023-09-30T01:49:18;2.88;;;2.10;;
57778;SDS011;43608;49.486;9.640;2023-09-30T01:49:48;2.30;;;2.10;;
57778;SDS011;43608;49.486;9.640;2023-09-30T01:50:19;2.42;;;2.08;;
57778;SDS011;43608;49.486;9.640;2023-09-30T01:50:50;3.03;;;2.00;;
57778;SDS011;43608;49.486;9.640;2023-09-30T01:51:20;2.28;;;2.08;;
57778;SDS011;43608;49.486;9.640;2023-09-30T01:51:51;2.47;;;2.28;;
57778;SDS011;43608;49.486;9.640;2023-09-30T01:52:22;3.35;;;2.45;;
57778;SDS011;43608;49.486;9.640;2023-09-30T01:52:52;2.85;;;2.20;;
57778;SDS011;43608;49.486;9.640;2023-09-30T01:53:22;2.45;;;2.22;;
57778;SDS011;43608;49.486;9.640;2023-09-30T01:53:53;2.75;;;2.30;;
57778;SDS011;43608;49.486;9.640;2023-09-30T01:54:23;2.50;;;2.20;;
57778;SDS011;43608;49.486;9.640;2023-09-30T01:54:54;3.55;;;2.35;;
57778;SDS011;43608;49.486;9.640;2023-09-30T01:55:24;3.60;;;2.45;;
57778;SDS011;43608;49.486;9.640;2023-09-30T01:55:54;3.00;;;2.20;;
57778;SDS011;43608;49.486;9.640;2023-09-30T01:56:25;3.25;;;2.50;;
57778;SDS011;43608;49.486;9.640;2023-09-30T01:56:55;2.65;;;2.10;;
57778;SDS011;43608;49.486;9.640;2023-09-30T01:57:26;3.03;;;2.15;;
57778;SDS011;43608;49.486;9.640;2023-09-30T01:57:56;3.17;;;2.50;;
57778;SDS011;43608;49.486;9.640;2023-09-30T01:58:26;2.55;;;2.33;;
57778;SDS011;43608;49.486;9.640;2023-09-30T01:58:57;2.72;;;2.28;;
57778;SDS011;43608;49.486;9.640;2023-09-30T01:59:27;3.20;;;2.60;;
57778;SDS011;43608;49.486;9.640;2023-09-30T01:59:58;3.33;;;2.40;;
57778;SDS011;43608;49.486;9.640;2023-09-30T02:00:28;2.45;;;2.22;;
57778;SDS011;43608;49.486;9.640;2023-09-30T02:01:02;3.55;;;2.30;;
57778;SDS011;43608;49.486;9.640;2023-09-30T02:01:33;2.50;;;2.30;;
57778;SDS011;43608;49.486;9.640;2023-09-30T02:02:03;2.85;;;2.55;;
57778;SDS011;43608;49.486;9.640;2023-09-30T02:02:34;3.35;;;2.60;;
57778;SDS011;43608;49.486;9.640;2023-09-30T02:03:05;3.58;;;2.47;;
57778;SDS011;43608;49.486;9.640;2023-09-30T02:03:35;2.40;;;2.20;;
57778;SDS011;43608;49.486;9.640;2023-09-30T02:04:06;2.92;;;2.20;;
57778;SDS011;43608;49.486;9.640;2023-09-30T02:04:36;3.10;;;2.50;;
57778;SDS011;43608;49.486;9.640;2023-09-30T02:05:07;2.35;;;2.15;;
57778;SDS011;43608;49.486;9.640;2023-09-30T02:05:40;2.97;;;2.55;;
57778;SDS011;43608;49.486;9.640;2023-09-30T02:06:11;3.13;;;2.50;;
57778;SDS011;43608;49.486;9.640;2023-09-30T02:06:41;3.13;;;2.40;;
57778;SDS011;43608;49.486;9.640;2023-09-30T02:07:12;3.25;;;2.50;;
57778;SDS011;43608;49.486;9.640;2023-09-30T02:07:42;2.90;;;2.30;;
57778;SDS011;43608;49.486;9.640;2023-09-30T02:08:13;2.63;;;2.20;;
57778;SDS011;43608;49.486;9.640;2023-09-30T02:08:43;2.78;;;2.40;;
57778;SDS011;43608;49.486;9.640;2023-09-30T02:09:14;2.80;;;2.20;;
57778;SDS011;43608;49.486;9.640;2023-09-30T02:09:45;2.65;;;2.30;;
57778;SDS011;43608;49.486;9.640;2023-09-30T02:10:15;3.22;;;2.42;;
57778;SDS011;43608;49.486;9.640;2023-09-30T02:10:46;4.35;;;2.50;;
57778;SDS011;43608;49.486;9.640;2023-09-30T02:11:17;3.85;;;2.63;;
57778;SDS011;43608;49.486;9.640;2023-09-30T02:11:47;2.50;;;2.20;;
57778;SDS011;43608;49.486;9.640;2023-09-30T02:12:17;2.92;;;2.40;;
57778;SDS011;43608;49.486;9.640;2023-09-30T02:12:48;2.75;;;2.45;;
57778;SDS011;43608;49.486;9.640;2023-09-30T02:13:18;2.85;;;2.30;;
57778;SDS011;43608;49.486;9.640;2023-09-30T02:13:49;3.10;;;2.38;;
57778;SDS011;43608;49.486;9.640;2023-09-30T02:14:19;4.00;;;2.38;;
57778;SDS011;43608;49.486;9.640;2023-09-30T02:14:50;2.95;;;2.45;;
57778;SDS011;43608;49.486;9.640;2023-09-30T02:15:20;2.67;;;2.30;;
57778;SDS011;43608;49.486;9.640;2023-09-30T02:15:51;2.88;;;2.35;;
57778;SDS011;43608;49.486;9.640;2023-09-30T02:16:22;2.80;;;2.35;;
57778;SDS011;43608;49.486;9.640;2023-09-30T02:16:53;3.45;;;2.47;;
57778;SDS011;43608;49.486;9.640;2023-09-30T02:17:23;3.30;;;2.50;;
57778;SDS011;43608;49.486;9.640;2023-09-30T02:17:53;3.15;;;2.50;;
57778;SDS011;43608;49.486;9.640;2023-09-30T02:18:23;2.55;;;2.30;;
57778;SDS011;43608;49.486;9.640;2023-09-30T02:18:54;3.20;;;2.47;;
57778;SDS011;43608;49.486;9.640;2023-09-30T02:19:25;3.50;;;2.40;;
57778;SDS011;43608;49.486;9.640;2023-09-30T02:19:57;2.45;;;2.15;;
57778;SDS011;43608;49.486;9.640;2023-09-30T02:20:27;3.20;;;2.25;;
57778;SDS011;43608;49.486;9.640;2023-09-30T02:21:00;2.90;;;2.30;;
57778;SDS011;43608;49.486;9.640;2023-09-30T02:21:30;2.60;;;2.30;;
57778;SDS011;43608;49.486;9.640;2023-09-30T02:22:01;3.25;;;2.30;;
57778;SDS011;43608;49.486;9.640;2023-09-30T02:22:32;2.38;;;2.17;;
57778;SDS011;43608;49.486;9.640;2023-09-30T02:23:03;2.30;;;2.10;;
57778;SDS011;43608;49.486;9.640;2023-09-30T02:23:35;2.60;;;2.20;;
57778;SDS011;43608;49.486;9.640;2023-09-30T02:24:06;3.28;;;2.40;;
57778;SDS011;43608;49.486;9.640;2023-09-30T02:24:37;2.50;;;2.30;;
57778;SDS011;43608;49.486;9.640;2023-09-30T02:25:10;3.50;;;2.53;;
57778;SDS011;43608;49.486;9.640;2023-09-30T02:25:42;2.33;;;2.10;;
57778;SDS011;43608;49.486;9.640;2023-09-30T02:26:15;2.67;;;2.30;;
57778;SDS011;43608;49.486;9.640;2023-09-30T02:26:46;2.30;;;2.10;;
57778;SDS011;43608;49.486;9.640;2023-09-30T02:27:16;2.42;;;2.22;;
57778;SDS011;43608;49.486;9.640;2023-09-30T02:27:47;2.70;;;2.30;;
57778;SDS011;43608;49.486;9.640;2023-09-30T02:28:19;2.50;;;2.20;;
57778;SDS011;43608;49.486;9.640;2023-09-30T02:28:50;2.70;;;2.28;;
57778;SDS011;43608;49.486;9.640;2023-09-30T02:29:20;2.88;;;2.33;;
57778;SDS011;43608;49.486;9.640;2023-09-30T02:29:50;3.28;;;2.40;;
57778;SDS011;43608;49.486;9.640;2023-09-30T02:30:21;2.60;;;2.33;;
57778;SDS011;43608;49.486;9.640;2023-09-30T02:30:51;2.88;;;2.30;;
57778;SDS011;43608;49.486;9.640;2023-09-30T02:31:23;2.53;;;2.05;;
57778;SDS011;43608;49.486;9.640;2023-09-30T02:31:54;2.60;;;2.35;;
57778;SDS011;43608;49.486;9.640;2023-09-30T02:32:24;2.20;;;2.00;;
57778;SDS011;43608;49.486;9.640;2023-09-30T02:32:55;2.70;;;2.13;;
57778;SDS011;43608;49.486;9.640;2023-09-30T02:33:26;2.70;;;2.30;;
57778;SDS011;43608;49.486;9.640;2023-09-30T02:33:57;2.33;;;2.13;;
57778;SDS011;43608;49.486;9.640;2023-09-30T02:34:27;2.30;;;2.10;;
57778;SDS011;43608;49.486;9.640;2023-09-30T02:35:00;2.50;;;2.30;;
57778;SDS011;43608;49.486;9.640;2023-09-30T02:35:30;3.03;;;2.45;;
57778;SDS011;43608;49.486;9.640;2023-09-30T02:36:01;2.30;;;2.10;;
57778;SDS011;43608;49.486;9.640;2023-09-30T02:36:31;2.33;;;2.13;;
57778;SDS011;43608;49.486;9.640;2023-09-30T02:37:02;2.60;;;2.30;;
57778;SDS011;43608;49.486;9.640;2023-09-30T02:37:32;2.63;;;2.30;;
57778;SDS011;43608;49.486;9.640;2023-09-30T02:38:07;2.50;;;2.13;;
57778;SDS011;43608;49.486;9.640;2023-09-30T02:38:38;2.58;;;2.15;;
57778;SDS011;43608;49.486;9.640;2023-09-30T02:39:08;2.40;;;2.20;;
57778;SDS011;43608;49.486;9.640;2023-09-30T02:39:39;3.20;;;2.40;;
57778;SDS011;43608;49.486;9.640;2023-09-30T02:40:10;2.80;;;2.17;;
57778;SDS011;43608;49.486;9.640;2023-09-30T02:40:41;2.40;;;2.20;;
57778;SDS011;43608;49.486;9.640;2023-09-30T02:41:15;2.80;;;2.20;;
57778;SDS011;43608;49.486;9.640;2023-09-30T02:41:46;3.20;;;2.40;;
57778;SDS011;43608;49.486;9.640;2023-09-30T02:42:16;3.20;;;2.35;;
57778;SDS011;43608;49.486;9.640;2023-09-30T02:42:47;2.85;;;2.28;;
57778;SDS011;43608;49.486;9.640;2023-09-30T02:43:18;2.42;;;2.22;;
57778;SDS011;43608;49.486;9.640;2023-09-30T02:43:50;3.30;;;2.40;;
57778;SDS011;43608;49.486;9.640;2023-09-30T02:44:20;3.10;;;2.30;;
57778;SDS011;43608;49.486;9.640;2023-09-30T02:44:50;2.63;;;2.28;;
57778;SDS011;43608;49.486;9.640;2023-09-30T02:45:21;2.58;;;2.38;;
57778;SDS011;43608;49.486;9.640;2023-09-30T02:45:51;2.40;;;2.20;;
57778;SDS011;43608;49.486;9.640;2023-09-30T02:46:22;2.60;;;2.17;;
57778;SDS011;43608;49.486;9.640;2023-09-30T02:46:53;2.42;;;2.20;;
57778;SDS011;43608;49.486;9.640;2023-09-30T02:47:23;2.63;;;2.30;;
57778;SDS011;43608;49.486;9.640;2023-09-30T02:47:53;2.70;;;2.25;;
57778;SDS011;43608;49.486;9.640;2023-09-30T02:48:24;2.33;;;2.10;;
57778;SDS011;43608;49.486;9.640;2023-09-30T02:48:54;2.92;;;2.17;;
57778;SDS011;43608;49.486;9.640;2023-09-30T02:49:25;3.42;;;2.35;;
57778;SDS011;43608;49.486;9.640;2023-09-30T02:49:56;2.67;;;2.20;;
57778;SDS011;43608;49.486;9.640;2023-09-30T02:50:27;2.88;;;2.50;;
57778;SDS011;43608;49.486;9.640;2023-09-30T02:50:57;3.00;;;2.30;;
57778;SDS011;43608;49.486;9.640;2023-09-30T02:51:27;2.75;;;2.17;;
57778;SDS011;43608;49.486;9.640;2023-09-30T02:51:59;2.65;;;2.40;;
57778;SDS011;43608;49.486;9.640;2023-09-30T02:52:30;3.20;;;2.22;;
57778;SDS011;43608;49.486;9.640;2023-09-30T02:53:01;2.85;;;2.20;;
57778;SDS011;43608;49.486;9.640;2023-09-30T02:53:31;2.58;;;2.17;;
57778;SDS011;43608;49.486;9.640;2023-09-30T02:54:02;2.40;;;2.20;;
57778;SDS011;43608;49.486;9.640;2023-09-30T02:54:35;2.70;;;2.30;;
57778;SDS011;43608;49.486;9.640;2023-09-30T02:55:09;2.13;;;1.95;;
57778;SDS011;43608;49.486;9.640;2023-09-30T02:55:41;3.35;;;2.50;;
57778;SDS011;43608;49.486;9.640;2023-09-30T02:56:11;3.15;;;2.30;;
57778;SDS011;43608;49.486;9.640;2023-09-30T02:56:42;3.17;;;2.35;;
57778;SDS011;43608;49.486;9.640;2023-09-30T02:57:12;2.70;;;2.35;;
57778;SDS011;43608;49.486;9.640;2023-09-30T02:57:43;2.58;;;2.15;;
57778;SDS011;43608;49.486;9.640;2023-09-30T02:58:13;2.33;;;2.13;;
57778;SDS011;43608;49.486;9.640;2023-09-30T02:58:45;3.28;;;2.40;;
57778;SDS011;43608;49.486;9.640;2023-09-30T02:59:15;2.72;;;2.25;;
57778;SDS011;43608;49.486;9.640;2023-09-30T02:59:47;2.40;;;2.20;;
57778;SDS011;43608;49.486;9.640;2023-09-30T03:00:17;2.50;;;2.30;;
57778;SDS011;43608;49.486;9.640;2023-09-30T03:00:53;2.97;;;2.28;;
57778;SDS011;43608;49.486;9.640;2023-09-30T03:01:24;2.47;;;2.28;;
57778;SDS011;43608;49.486;9.640;2023-09-30T03:01:54;2.70;;;2.40;;
57778;SDS011;43608;49.486;9.640;2023-09-30T03:02:24;3.00;;;2.50;;
57778;SDS011;43608;49.486;9.640;2023-09-30T03:02:55;2.88;;;2.30;;
57778;SDS011;43608;49.486;9.640;2023-09-30T03:03:26;3.17;;;2.53;;
57778;SDS011;43608;49.486;9.640;2023-09-30T03:03:57;2.58;;;2.22;;
57778;SDS011;43608;49.486;9.640;2023-09-30T03:04:27;2.95;;;2.33;;
57778;SDS011;43608;49.486;9.640;2023-09-30T03:04:58;2.92;;;2.50;;
57778;SDS011;43608;49.486;9.640;2023-09-30T03:05:29;2.40;;;2.20;;
57778;SDS011;43608;49.486;9.640;2023-09-30T03:06:03;2.80;;;2.33;;
57778;SDS011;43608;49.486;9.640;2023-09-30T03:06:33;2.63;;;2.30;;
57778;SDS011;43608;49.486;9.640;2023-09-30T03:07:07;3.67;;;2.40;;